sensor_id;sensor_type;location;lat;lon;timestamp;pressure;altitude;pressure_sealevel;temperature;humidity
29371;BME280;16357;52.188;7.838;2023-06-04T00:01:56;101458.97;;;15.66;41.54
29371;BME280;16357;52.188;7.838;2023-06-04T00:04:25;101453.75;;;15.64;41.48
29371;BME280;16357;52.188;7.838;2023-06-04T00:06:51;101457.81;;;15.60;41.86
29371;BME280;16357;52.188;7.838;2023-06-04T00:09:18;101456.28;;;15.57;41.85
29371;BME280;16357;52.188;7.838;2023-06-04T00:11:44;101458.50;;;15.54;41.93
29371;BME280;16357;52.188;7.838;2023-06-04T00:14:13;101455.97;;;15.52;41.94
29371;BME280;16357;52.188;7.838;2023-06-04T00:16:39;101453.75;;;15.48;41.98
29371;BME280;16357;52.188;7.838;2023-06-04T00:19:07;101449.53;;;15.45;42.04
29371;BME280;16357;52.188;7.838;2023-06-04T00:21:34;101449.06;;;15.42;42.20
29371;BME280;16357;52.188;7.838;2023-06-04T00:24:01;101444.97;;;15.37;42.22
29371;BME280;16357;52.188;7.838;2023-06-04T00:26:28;101451.41;;;15.36;42.30
29371;BME280;16357;52.188;7.838;2023-06-04T00:28:54;101446.34;;;15.33;42.36
29371;BME280;16357;52.188;7.838;2023-06-04T00:31:21;101452.94;;;15.31;42.49
29371;BME280;16357;52.188;7.838;2023-06-04T00:33:48;101444.34;;;15.27;42.61
29371;BME280;16357;52.188;7.838;2023-06-04T00:36:14;101450.94;;;15.25;42.59
29371;BME280;16357;52.188;7.838;2023-06-04T00:38:41;101442.31;;;15.21;42.67
29371;BME280;16357;52.188;7.838;2023-06-04T00:41:07;101446.19;;;15.19;42.82
29371;BME280;16357;52.188;7.838;2023-06-04T00:43:35;101447.56;;;15.14;43.00
29371;BME280;16357;52.188;7.838;2023-06-04T00:46:02;101450.41;;;15.13;43.00
29371;BME280;16357;52.188;7.838;2023-06-04T00:48:32;101445.34;;;15.10;42.92
29371;BME280;16357;52.188;7.838;2023-06-04T00:50:59;101448.41;;;15.07;43.08
29371;BME280;16357;52.188;7.838;2023-06-04T00:53:26;101438.78;;;15.04;42.99
29371;BME280;16357;52.188;7.838;2023-06-04T00:55:53;101435.38;;;15.02;43.22
29371;BME280;16357;52.188;7.838;2023-06-04T00:58:19;101428.47;;;15.00;43.35
29371;BME280;16357;52.188;7.838;2023-06-04T01:00:46;101438.59;;;14.98;43.41
29371;BME280;16357;52.188;7.838;2023-06-04T01:03:17;101427.13;;;14.96;43.31
29371;BME280;16357;52.188;7.838;2023-06-04T01:06:04;101439.94;;;14.93;43.24
29371;BME280;16357;52.188;7.838;2023-06-04T01:08:35;101418.97;;;14.87;43.61
29371;BME280;16357;52.188;7.838;2023-06-04T01:11:03;101433.66;;;14.85;43.62
29371;BME280;16357;52.188;7.838;2023-06-04T01:13:29;101428.47;;;14.83;43.76
29371;BME280;16357;52.188;7.838;2023-06-04T01:15:56;101427.09;;;14.79;43.80
29371;BME280;16357;52.188;7.838;2023-06-04T01:18:26;101422.03;;;14.76;43.79
29371;BME280;16357;52.188;7.838;2023-06-04T01:21:02;101419.81;;;14.71;43.86
29371;BME280;16357;52.188;7.838;2023-06-04T01:23:35;101426.41;;;14.69;44.10
29371;BME280;16357;52.188;7.838;2023-06-04T01:26:05;101425.06;;;14.65;44.28
29371;BME280;16357;52.188;7.838;2023-06-04T01:28:34;101418.13;;;14.62;44.18
29371;BME280;16357;52.188;7.838;2023-06-04T01:31:01;101414.94;;;14.59;44.42
29371;BME280;16357;52.188;7.838;2023-06-04T01:33:29;101420.63;;;14.56;44.44
29371;BME280;16357;52.188;7.838;2023-06-04T01:35:55;101423.66;;;14.53;44.69
29371;BME280;16357;52.188;7.838;2023-06-04T01:38:22;101422.94;;;14.50;44.65
29371;BME280;16357;52.188;7.838;2023-06-04T01:40:49;101414.19;;;14.48;44.90
29371;BME280;16357;52.188;7.838;2023-06-04T01:43:16;101413.50;;;14.46;44.71
29371;BME280;16357;52.188;7.838;2023-06-04T01:45:43;101420.25;;;14.42;44.91
29371;BME280;16357;52.188;7.838;2023-06-04T01:48:09;101420.56;;;14.39;45.09
29371;BME280;16357;52.188;7.838;2023-06-04T01:50:36;101419.88;;;14.37;45.33
29371;BME280;16357;52.188;7.838;2023-06-04T01:53:02;101423.94;;;14.33;45.27
29371;BME280;16357;52.188;7.838;2023-06-04T01:55:29;101421.56;;;14.30;45.36
29371;BME280;16357;52.188;7.838;2023-06-04T01:58:00;101423.59;;;14.28;45.45
29371;BME280;16357;52.188;7.838;2023-06-04T02:00:27;101422.06;;;14.25;45.63
29371;BME280;16357;52.188;7.838;2023-06-04T02:02:53;101426.75;;;14.23;45.70
29371;BME280;16357;52.188;7.838;2023-06-04T02:05:22;101429.66;;;14.22;45.94
29371;BME280;16357;52.188;7.838;2023-06-04T02:07:49;101436.22;;;14.19;45.74
29371;BME280;16357;52.188;7.838;2023-06-04T02:10:17;101423.91;;;14.17;45.73
29371;BME280;16357;52.188;7.838;2023-06-04T02:13:01;101434.00;;;14.15;45.95
29371;BME280;16357;52.188;7.838;2023-06-04T02:15:31;101424.88;;;14.16;44.93
29371;BME280;16357;52.188;7.838;2023-06-04T02:18:10;101427.91;;;14.13;45.54
29371;BME280;16357;52.188;7.838;2023-06-04T02:20:43;101430.25;;;14.08;45.69
29371;BME280;16357;52.188;7.838;2023-06-04T02:23:11;101420.81;;;14.03;46.10
29371;BME280;16357;52.188;7.838;2023-06-04T02:25:38;101426.50;;;14.00;45.99
29371;BME280;16357;52.188;7.838;2023-06-04T02:28:04;101426.84;;;13.97;46.09
29371;BME280;16357;52.188;7.838;2023-06-04T02:30:31;101427.16;;;13.94;46.11
29371;BME280;16357;52.188;7.838;2023-06-04T02:32:58;101422.94;;;13.92;46.48
29371;BME280;16357;52.188;7.838;2023-06-04T02:35:28;101416.00;;;13.89;46.31
29371;BME280;16357;52.188;7.838;2023-06-04T02:37:54;101426.09;;;13.87;46.54
29371;BME280;16357;52.188;7.838;2023-06-04T02:40:22;101424.56;;;13.84;46.66
29371;BME280;16357;52.188;7.838;2023-06-04T02:42:49;101423.72;;;13.84;46.63
29371;BME280;16357;52.188;7.838;2023-06-04T02:45:15;101426.63;;;13.82;46.63
29371;BME280;16357;52.188;7.838;2023-06-04T02:47:42;101419.69;;;13.80;46.92
29371;BME280;16357;52.188;7.838;2023-06-04T02:50:09;101430.63;;;13.78;46.97
29371;BME280;16357;52.188;7.838;2023-06-04T02:52:35;101412.91;;;13.76;47.17
29371;BME280;16357;52.188;7.838;2023-06-04T02:55:05;101419.31;;;13.75;46.96
29371;BME280;16357;52.188;7.838;2023-06-04T02:57:32;101424.88;;;13.73;47.22
29371;BME280;16357;52.188;7.838;2023-06-04T02:59:59;101428.56;;;13.72;47.25
29371;BME280;16357;52.188;7.838;2023-06-04T03:02:26;101427.88;;;13.70;47.42
29371;BME280;16357;52.188;7.838;2023-06-04T03:04:52;101437.84;;;13.70;47.50
29371;BME280;16357;52.188;7.838;2023-06-04T03:07:21;101425.34;;;13.69;47.54
29371;BME280;16357;52.188;7.838;2023-06-04T03:09:49;101434.59;;;13.66;47.67
29371;BME280;16357;52.188;7.838;2023-06-04T03:12:15;101433.75;;;13.66;47.45
29371;BME280;16357;52.188;7.838;2023-06-04T03:14:42;101434.75;;;13.65;48.02
29371;BME280;16357;52.188;7.838;2023-06-04T03:17:10;101428.69;;;13.63;47.67
29371;BME280;16357;52.188;7.838;2023-06-04T03:19:40;101427.00;;;13.61;47.42
29371;BME280;16357;52.188;7.838;2023-06-04T03:22:08;101444.00;;;13.62;47.63
29371;BME280;16357;52.188;7.838;2023-06-04T03:24:37;101438.78;;;13.60;47.74
29371;BME280;16357;52.188;7.838;2023-06-04T03:27:05;101431.84;;;13.58;47.75
29371;BME280;16357;52.188;7.838;2023-06-04T03:29:32;101435.56;;;13.57;47.93
29371;BME280;16357;52.188;7.838;2023-06-04T03:31:59;101429.31;;;13.56;47.92
29371;BME280;16357;52.188;7.838;2023-06-04T03:34:27;101434.03;;;13.54;48.15
29371;BME280;16357;52.188;7.838;2023-06-04T03:36:54;101430.50;;;13.54;48.00
29371;BME280;16357;52.188;7.838;2023-06-04T03:39:21;101425.25;;;13.52;48.12
29371;BME280;16357;52.188;7.838;2023-06-04T03:41:48;101432.50;;;13.52;48.34
29371;BME280;16357;52.188;7.838;2023-06-04T03:44:19;101435.19;;;13.52;47.73
29371;BME280;16357;52.188;7.838;2023-06-04T03:46:45;101440.72;;;13.50;48.12
29371;BME280;16357;52.188;7.838;2023-06-04T03:49:13;101436.34;;;13.49;48.37
29371;BME280;16357;52.188;7.838;2023-06-04T03:51:40;101435.50;;;13.49;48.20
29371;BME280;16357;52.188;7.838;2023-06-04T03:54:07;101430.25;;;13.47;48.35
29371;BME280;16357;52.188;7.838;2023-06-04T03:56:34;101430.25;;;13.47;48.20
29371;BME280;16357;52.188;7.838;2023-06-04T03:59:01;101435.84;;;13.46;48.40
29371;BME280;16357;52.188;7.838;2023-06-04T04:01:27;101439.38;;;13.46;48.65
29371;BME280;16357;52.188;7.838;2023-06-04T04:03:54;101435.97;;;13.44;48.52
29371;BME280;16357;52.188;7.838;2023-06-04T04:06:21;101434.13;;;13.45;48.67
29371;BME280;16357;52.188;7.838;2023-06-04T04:08:47;101430.59;;;13.44;48.51
29371;BME280;16357;52.188;7.838;2023-06-04T04:11:15;101443.03;;;13.45;48.49
29371;BME280;16357;52.188;7.838;2023-06-04T04:13:44;101439.38;;;13.46;48.63
29371;BME280;16357;52.188;7.838;2023-06-04T04:16:11;101435.66;;;13.47;48.68
29371;BME280;16357;52.188;7.838;2023-06-04T04:18:38;101431.97;;;13.48;48.62
29371;BME280;16357;52.188;7.838;2023-06-04T04:21:06;101434.50;;;13.50;48.40
29371;BME280;16357;52.188;7.838;2023-06-04T04:23:32;101431.66;;;13.51;48.62
29371;BME280;16357;52.188;7.838;2023-06-04T04:25:59;101433.34;;;13.52;48.70
29371;BME280;16357;52.188;7.838;2023-06-04T04:28:25;101436.72;;;13.54;48.66
29371;BME280;16357;52.188;7.838;2023-06-04T04:30:56;101434.72;;;13.56;48.75
29371;BME280;16357;52.188;7.838;2023-06-04T04:33:23;101436.41;;;13.57;48.66
29371;BME280;16357;52.188;7.838;2023-06-04T04:35:52;101433.56;;;13.59;48.69
29371;BME280;16357;52.188;7.838;2023-06-04T04:38:20;101427.84;;;13.62;48.55
29371;BME280;16357;52.188;7.838;2023-06-04T04:40:50;101440.16;;;13.65;48.74
29371;BME280;16357;52.188;7.838;2023-06-04T04:43:34;101444.38;;;13.67;48.57
29371;BME280;16357;52.188;7.838;2023-06-04T04:46:01;101449.59;;;13.69;48.65
29371;BME280;16357;52.188;7.838;2023-06-04T04:48:27;101448.44;;;13.71;48.65
29371;BME280;16357;52.188;7.838;2023-06-04T04:50:54;101443.91;;;13.72;48.36
29371;BME280;16357;52.188;7.838;2023-06-04T04:53:21;101445.41;;;13.74;48.64
29371;BME280;16357;52.188;7.838;2023-06-04T04:55:47;101436.16;;;13.77;48.73
29371;BME280;16357;52.188;7.838;2023-06-04T04:58:14;101442.94;;;13.81;48.57
29371;BME280;16357;52.188;7.838;2023-06-04T05:00:41;101447.16;;;13.83;48.44
29371;BME280;16357;52.188;7.838;2023-06-04T05:03:08;101453.06;;;13.87;48.39
29371;BME280;16357;52.188;7.838;2023-06-04T05:05:34;101454.47;;;13.91;48.36
29371;BME280;16357;52.188;7.838;2023-06-04T05:08:01;101435.25;;;13.94;48.53
29371;BME280;16357;52.188;7.838;2023-06-04T05:10:27;101443.72;;;13.99;48.19
29371;BME280;16357;52.188;7.838;2023-06-04T05:12:56;101443.22;;;14.04;48.19
29371;BME280;16357;52.188;7.838;2023-06-04T05:15:23;101440.19;;;14.07;48.10
29371;BME280;16357;52.188;7.838;2023-06-04T05:17:50;101446.78;;;14.13;48.09
29371;BME280;16357;52.188;7.838;2023-06-04T05:20:19;101440.75;;;14.19;47.87
29371;BME280;16357;52.188;7.838;2023-06-04T05:22:47;101448.34;;;14.23;48.00
29371;BME280;16357;52.188;7.838;2023-06-04T05:25:14;101447.88;;;14.28;47.77
29371;BME280;16357;52.188;7.838;2023-06-04T05:27:41;101451.78;;;14.34;47.79
29371;BME280;16357;52.188;7.838;2023-06-04T05:30:08;101456.69;;;14.38;47.54
29371;BME280;16357;52.188;7.838;2023-06-04T05:32:35;101447.91;;;14.44;47.51
29371;BME280;16357;52.188;7.838;2023-06-04T05:35:08;101452.50;;;14.52;47.35
29371;BME280;16357;52.188;7.838;2023-06-04T05:37:35;101455.59;;;14.57;47.08
29371;BME280;16357;52.188;7.838;2023-06-04T05:40:04;101452.41;;;14.62;46.98
29371;BME280;16357;52.188;7.838;2023-06-04T05:42:31;101452.56;;;14.68;47.22
29371;BME280;16357;52.188;7.838;2023-06-04T05:44:58;101451.06;;;14.74;46.79
29371;BME280;16357;52.188;7.838;2023-06-04T05:47:24;101453.09;;;14.80;46.97
29371;BME280;16357;52.188;7.838;2023-06-04T05:49:51;101448.06;;;14.85;46.30
29371;BME280;16357;52.188;7.838;2023-06-04T05:52:17;101452.78;;;14.91;45.87
29371;BME280;16357;52.188;7.838;2023-06-04T05:54:44;101451.09;;;14.99;46.19
29371;BME280;16357;52.188;7.838;2023-06-04T05:57:10;101452.09;;;15.06;46.06
29371;BME280;16357;52.188;7.838;2023-06-04T05:59:37;101452.13;;;15.14;45.83
29371;BME280;16357;52.188;7.838;2023-06-04T06:02:03;101456.84;;;15.20;45.40
29371;BME280;16357;52.188;7.838;2023-06-04T06:04:30;101456.16;;;15.26;45.08
29371;BME280;16357;52.188;7.838;2023-06-04T06:06:57;101464.44;;;15.33;45.16
29371;BME280;16357;52.188;7.838;2023-06-04T06:09:25;101450.09;;;15.41;44.92
29371;BME280;16357;52.188;7.838;2023-06-04T06:11:51;101452.09;;;15.47;45.03
29371;BME280;16357;52.188;7.838;2023-06-04T06:14:18;101457.47;;;15.55;44.90
29371;BME280;16357;52.188;7.838;2023-06-04T06:16:44;101452.25;;;15.62;44.67
29371;BME280;16357;52.188;7.838;2023-06-04T06:19:11;101456.81;;;15.69;45.19
29371;BME280;16357;52.188;7.838;2023-06-04T06:21:37;101469.47;;;15.77;44.73
29371;BME280;16357;52.188;7.838;2023-06-04T06:24:04;101468.44;;;15.86;44.64
29371;BME280;16357;52.188;7.838;2023-06-04T06:26:31;101480.28;;;15.93;44.02
29371;BME280;16357;52.188;7.838;2023-06-04T06:28:57;101463.16;;;16.01;44.13
29371;BME280;16357;52.188;7.838;2023-06-04T06:31:24;101468.53;;;16.09;44.22
29371;BME280;16357;52.188;7.838;2023-06-04T06:33:50;101471.22;;;16.17;43.88
29371;BME280;16357;52.188;7.838;2023-06-04T06:36:17;101475.56;;;16.27;43.71
29371;BME280;16357;52.188;7.838;2023-06-04T06:38:45;101479.09;;;16.35;43.67
29371;BME280;16357;52.188;7.838;2023-06-04T06:41:12;101479.69;;;16.45;43.57
29371;BME280;16357;52.188;7.838;2023-06-04T06:43:39;101477.81;;;16.54;43.50
29371;BME280;16357;52.188;7.838;2023-06-04T06:46:05;101475.91;;;16.63;43.57
29371;BME280;16357;52.188;7.838;2023-06-04T06:48:32;101478.38;;;16.73;43.01
29371;BME280;16357;52.188;7.838;2023-06-04T06:50:58;101478.38;;;16.81;42.58
29371;BME280;16357;52.188;7.838;2023-06-04T06:53:24;101481.69;;;16.91;42.93
29371;BME280;16357;52.188;7.838;2023-06-04T06:55:51;101476.22;;;16.99;42.66
29371;BME280;16357;52.188;7.838;2023-06-04T06:58:17;101490.53;;;17.08;42.31
29371;BME280;16357;52.188;7.838;2023-06-04T07:00:44;101490.31;;;17.18;42.07
29371;BME280;16357;52.188;7.838;2023-06-04T07:03:11;101483.78;;;17.27;42.54
29371;BME280;16357;52.188;7.838;2023-06-04T07:05:37;101488.28;;;17.34;42.17
29371;BME280;16357;52.188;7.838;2023-06-04T07:08:04;101489.91;;;17.44;41.79
29371;BME280;16357;52.188;7.838;2023-06-04T07:10:30;101498.44;;;17.55;41.41
29371;BME280;16357;52.188;7.838;2023-06-04T07:12:57;101496.53;;;17.64;41.79
29371;BME280;16357;52.188;7.838;2023-06-04T07:15:23;101511.69;;;17.73;41.04
29371;BME280;16357;52.188;7.838;2023-06-04T07:17:50;101506.88;;;17.84;41.33
29371;BME280;16357;52.188;7.838;2023-06-04T07:20:16;101500.50;;;17.91;41.05
29371;BME280;16357;52.188;7.838;2023-06-04T07:22:43;101504.34;;;17.97;41.15
29371;BME280;16357;52.188;7.838;2023-06-04T07:25:09;101497.97;;;18.05;40.93
29371;BME280;16357;52.188;7.838;2023-06-04T07:27:36;101503.31;;;18.13;40.97
29371;BME280;16357;52.188;7.838;2023-06-04T07:30:03;101498.81;;;18.20;40.33
29371;BME280;16357;52.188;7.838;2023-06-04T07:32:29;101502.28;;;18.29;40.76
29371;BME280;16357;52.188;7.838;2023-06-04T07:34:56;101503.66;;;18.39;40.45
29371;BME280;16357;52.188;7.838;2023-06-04T07:37:22;101506.94;;;18.50;40.35
29371;BME280;16357;52.188;7.838;2023-06-04T07:39:49;101501.84;;;18.61;40.35
29371;BME280;16357;52.188;7.838;2023-06-04T07:42:15;101499.03;;;18.70;39.52
29371;BME280;16357;52.188;7.838;2023-06-04T07:44:42;101491.41;;;18.80;39.49
29371;BME280;16357;52.188;7.838;2023-06-04T07:47:08;101502.00;;;18.90;39.24
29371;BME280;16357;52.188;7.838;2023-06-04T07:49:35;101501.88;;;18.98;38.82
29371;BME280;16357;52.188;7.838;2023-06-04T07:52:09;101499.69;;;19.08;39.03
29371;BME280;16357;52.188;7.838;2023-06-04T07:54:36;101503.09;;;19.17;38.61
29371;BME280;16357;52.188;7.838;2023-06-04T07:57:02;101501.09;;;19.25;38.72
29371;BME280;16357;52.188;7.838;2023-06-04T07:59:29;101504.34;;;19.36;38.17
29371;BME280;16357;52.188;7.838;2023-06-04T08:01:55;101501.91;;;19.47;38.28
29371;BME280;16357;52.188;7.838;2023-06-04T08:04:22;101506.81;;;19.59;37.42
29371;BME280;16357;52.188;7.838;2023-06-04T08:06:48;101503.59;;;19.70;37.31
29371;BME280;16357;52.188;7.838;2023-06-04T08:09:16;101504.94;;;19.81;36.93
29371;BME280;16357;52.188;7.838;2023-06-04T08:11:42;101500.81;;;19.91;36.33
29371;BME280;16357;52.188;7.838;2023-06-04T08:14:11;101502.16;;;20.02;36.26
29371;BME280;16357;52.188;7.838;2023-06-04T08:16:39;101502.81;;;20.11;35.88
29371;BME280;16357;52.188;7.838;2023-06-04T08:19:07;101505.00;;;20.22;35.47
29371;BME280;16357;52.188;7.838;2023-06-04T08:21:34;101507.34;;;20.32;35.88
29371;BME280;16357;52.188;7.838;2023-06-04T08:24:01;101509.47;;;20.43;35.32
29371;BME280;16357;52.188;7.838;2023-06-04T08:26:28;101512.66;;;20.53;34.60
29371;BME280;16357;52.188;7.838;2023-06-04T08:28:55;101506.03;;;20.63;34.73
29371;BME280;16357;52.188;7.838;2023-06-04T08:31:21;101520.13;;;20.73;34.81
29371;BME280;16357;52.188;7.838;2023-06-04T08:33:48;101516.38;;;20.80;34.89
29371;BME280;16357;52.188;7.838;2023-06-04T08:36:14;101518.09;;;20.88;34.54
29371;BME280;16357;52.188;7.838;2023-06-04T08:38:42;101525.25;;;20.96;33.94
29371;BME280;16357;52.188;7.838;2023-06-04T08:41:28;101514.75;;;21.06;34.20
29371;BME280;16357;52.188;7.838;2023-06-04T08:43:57;101531.78;;;21.15;33.67
29371;BME280;16357;52.188;7.838;2023-06-04T08:46:28;101527.16;;;21.22;33.82
29371;BME280;16357;52.188;7.838;2023-06-04T08:49:00;101526.34;;;21.28;33.17
29371;BME280;16357;52.188;7.838;2023-06-04T08:51:30;101518.38;;;21.33;32.75
29371;BME280;16357;52.188;7.838;2023-06-04T08:53:59;101525.75;;;21.39;32.13
29371;BME280;16357;52.188;7.838;2023-06-04T08:56:26;101514.84;;;21.46;31.95
29371;BME280;16357;52.188;7.838;2023-06-04T08:59:00;101515.25;;;21.56;32.48
29371;BME280;16357;52.188;7.838;2023-06-04T09:01:28;101517.78;;;21.64;31.36
29371;BME280;16357;52.188;7.838;2023-06-04T09:03:55;101513.97;;;21.72;31.72
29371;BME280;16357;52.188;7.838;2023-06-04T09:06:25;101522.38;;;21.84;31.32
29371;BME280;16357;52.188;7.838;2023-06-04T09:08:51;101514.78;;;21.92;31.24
29371;BME280;16357;52.188;7.838;2023-06-04T09:11:26;101510.56;;;22.03;30.50
29371;BME280;16357;52.188;7.838;2023-06-04T09:13:57;101509.50;;;22.11;30.35
29371;BME280;16357;52.188;7.838;2023-06-04T09:16:25;101512.91;;;22.20;30.20
29371;BME280;16357;52.188;7.838;2023-06-04T09:18:53;101512.44;;;22.29;28.74
29371;BME280;16357;52.188;7.838;2023-06-04T09:21:19;101507.97;;;22.35;28.65
29371;BME280;16357;52.188;7.838;2023-06-04T09:23:47;101513.44;;;22.42;28.68
29371;BME280;16357;52.188;7.838;2023-06-04T09:26:14;101521.00;;;22.46;27.85
29371;BME280;16357;52.188;7.838;2023-06-04T09:28:41;101514.66;;;22.52;28.00
29371;BME280;16357;52.188;7.838;2023-06-04T09:31:17;101515.03;;;22.63;28.35
29371;BME280;16357;52.188;7.838;2023-06-04T09:33:48;101520.88;;;22.73;28.12
29371;BME280;16357;52.188;7.838;2023-06-04T09:36:16;101508.22;;;22.78;27.08
29371;BME280;16357;52.188;7.838;2023-06-04T09:38:43;101516.81;;;22.89;27.07
29371;BME280;16357;52.188;7.838;2023-06-04T09:41:17;101511.09;;;22.97;27.07
29371;BME280;16357;52.188;7.838;2023-06-04T09:43:59;101507.25;;;23.05;27.46
29371;BME280;16357;52.188;7.838;2023-06-04T09:46:29;101504.91;;;23.08;27.05
29371;BME280;16357;52.188;7.838;2023-06-04T09:49:01;101512.03;;;23.16;27.02
29371;BME280;16357;52.188;7.838;2023-06-04T09:51:29;101510.91;;;23.23;26.00
29371;BME280;16357;52.188;7.838;2023-06-04T09:53:59;101507.06;;;23.31;26.18
29371;BME280;16357;52.188;7.838;2023-06-04T09:56:26;101511.66;;;23.37;25.93
29371;BME280;16357;52.188;7.838;2023-06-04T09:59:00;101517.31;;;23.42;25.90
29371;BME280;16357;52.188;7.838;2023-06-04T10:01:30;101516.25;;;23.43;25.88
29371;BME280;16357;52.188;7.838;2023-06-04T10:03:59;101512.66;;;23.43;25.32
29371;BME280;16357;52.188;7.838;2023-06-04T10:06:32;101502.31;;;23.45;25.74
29371;BME280;16357;52.188;7.838;2023-06-04T10:09:04;101497.47;;;23.47;25.53
29371;BME280;16357;52.188;7.838;2023-06-04T10:11:34;101500.84;;;23.49;25.98
29371;BME280;16357;52.188;7.838;2023-06-04T10:14:22;101504.78;;;23.53;24.84
29371;BME280;16357;52.188;7.838;2023-06-04T10:16:52;101501.38;;;23.58;26.02
29371;BME280;16357;52.188;7.838;2023-06-04T10:19:20;101495.84;;;23.64;26.36
29371;BME280;16357;52.188;7.838;2023-06-04T10:21:55;101497.47;;;23.72;25.48
29371;BME280;16357;52.188;7.838;2023-06-04T10:24:22;101498.50;;;23.78;25.34
29371;BME280;16357;52.188;7.838;2023-06-04T10:26:51;101498.66;;;23.83;24.85
29371;BME280;16357;52.188;7.838;2023-06-04T10:29:18;101489.97;;;23.86;25.33
29371;BME280;16357;52.188;7.838;2023-06-04T10:31:44;101501.31;;;23.90;25.32
29371;BME280;16357;52.188;7.838;2023-06-04T10:34:11;101497.28;;;23.92;24.50
29371;BME280;16357;52.188;7.838;2023-06-04T10:36:43;101491.34;;;23.95;24.70
29371;BME280;16357;52.188;7.838;2023-06-04T10:39:11;101494.09;;;23.95;24.60
29371;BME280;16357;52.188;7.838;2023-06-04T10:41:38;101490.88;;;23.98;24.73
29371;BME280;16357;52.188;7.838;2023-06-04T10:44:04;101497.81;;;24.01;25.10
29371;BME280;16357;52.188;7.838;2023-06-04T10:46:39;101499.06;;;24.05;24.73
29371;BME280;16357;52.188;7.838;2023-06-04T10:49:10;101495.25;;;24.06;24.46
29371;BME280;16357;52.188;7.838;2023-06-04T10:51:41;101487.41;;;24.09;24.71
29371;BME280;16357;52.188;7.838;2023-06-04T10:54:08;101486.94;;;24.13;24.62
29371;BME280;16357;52.188;7.838;2023-06-04T10:56:35;101484.81;;;24.15;24.83
29371;BME280;16357;52.188;7.838;2023-06-04T10:59:16;101483.91;;;24.21;25.07
29371;BME280;16357;52.188;7.838;2023-06-04T11:01:44;101486.19;;;24.24;24.67
29371;BME280;16357;52.188;7.838;2023-06-04T11:04:24;101484.81;;;24.33;25.13
29371;BME280;16357;52.188;7.838;2023-06-04T11:07:04;101490.00;;;24.41;25.21
29371;BME280;16357;52.188;7.838;2023-06-04T11:09:48;101486.72;;;24.51;24.95
29371;BME280;16357;52.188;7.838;2023-06-04T11:12:14;101494.63;;;24.59;24.49
29371;BME280;16357;52.188;7.838;2023-06-04T11:14:41;101492.63;;;24.66;24.60
29371;BME280;16357;52.188;7.838;2023-06-04T11:17:19;101482.63;;;24.72;24.70
29371;BME280;16357;52.188;7.838;2023-06-04T11:19:45;101482.19;;;24.75;23.89
29371;BME280;16357;52.188;7.838;2023-06-04T11:22:12;101473.72;;;24.77;23.57
29371;BME280;16357;52.188;7.838;2023-06-04T11:24:39;101479.44;;;24.75;23.89
29371;BME280;16357;52.188;7.838;2023-06-04T11:27:05;101484.94;;;24.75;23.55
29371;BME280;16357;52.188;7.838;2023-06-04T11:29:43;101482.41;;;24.73;23.76
29371;BME280;16357;52.188;7.838;2023-06-04T11:32:09;101485.16;;;24.73;24.25
29371;BME280;16357;52.188;7.838;2023-06-04T11:34:36;101486.59;;;24.76;24.00
29371;BME280;16357;52.188;7.838;2023-06-04T11:37:10;101475.75;;;24.81;23.69
29371;BME280;16357;52.188;7.838;2023-06-04T11:39:36;101469.81;;;24.84;24.38
29371;BME280;16357;52.188;7.838;2023-06-04T11:42:05;101475.66;;;24.88;23.99
29371;BME280;16357;52.188;7.838;2023-06-04T11:44:33;101477.47;;;24.94;23.53
29371;BME280;16357;52.188;7.838;2023-06-04T11:47:00;101471.25;;;24.98;23.56
29371;BME280;16357;52.188;7.838;2023-06-04T11:49:27;101475.22;;;25.03;24.05
29371;BME280;16357;52.188;7.838;2023-06-04T11:51:54;101465.47;;;25.07;23.86
29371;BME280;16357;52.188;7.838;2023-06-04T11:54:21;101461.75;;;25.13;24.13
29371;BME280;16357;52.188;7.838;2023-06-04T11:56:51;101472.44;;;25.21;23.93
29371;BME280;16357;52.188;7.838;2023-06-04T11:59:18;101473.16;;;25.28;23.79
29371;BME280;16357;52.188;7.838;2023-06-04T12:01:46;101474.13;;;25.34;23.40
29371;BME280;16357;52.188;7.838;2023-06-04T12:04:16;101464.31;;;25.38;23.37
29371;BME280;16357;52.188;7.838;2023-06-04T12:06:57;101464.94;;;25.40;23.29
29371;BME280;16357;52.188;7.838;2023-06-04T12:09:26;101460.75;;;25.37;23.64
29371;BME280;16357;52.188;7.838;2023-06-04T12:12:01;101457.16;;;25.37;23.68
29371;BME280;16357;52.188;7.838;2023-06-04T12:14:29;101458.25;;;25.36;23.62
29371;BME280;16357;52.188;7.838;2023-06-04T12:17:07;101456.94;;;25.38;22.97
29371;BME280;16357;52.188;7.838;2023-06-04T12:19:46;101458.59;;;25.39;23.65
29371;BME280;16357;52.188;7.838;2023-06-04T12:22:13;101451.44;;;25.38;23.47
29371;BME280;16357;52.188;7.838;2023-06-04T12:24:51;101453.13;;;25.39;23.78
29371;BME280;16357;52.188;7.838;2023-06-04T12:27:21;101454.53;;;25.42;23.59
29371;BME280;16357;52.188;7.838;2023-06-04T12:29:59;101438.53;;;25.51;23.72
29371;BME280;16357;52.188;7.838;2023-06-04T12:32:27;101444.97;;;25.56;24.03
29371;BME280;16357;52.188;7.838;2023-06-04T12:34:54;101457.31;;;25.66;23.37
29371;BME280;16357;52.188;7.838;2023-06-04T12:37:22;101448.34;;;25.70;23.03
29371;BME280;16357;52.188;7.838;2023-06-04T12:39:48;101448.09;;;25.72;23.03
29371;BME280;16357;52.188;7.838;2023-06-04T12:42:15;101446.66;;;25.69;23.02
29371;BME280;16357;52.188;7.838;2023-06-04T12:44:41;101439.97;;;25.65;22.81
29371;BME280;16357;52.188;7.838;2023-06-04T12:47:08;101440.47;;;25.62;23.14
29371;BME280;16357;52.188;7.838;2023-06-04T12:49:35;101435.81;;;25.62;23.49
29371;BME280;16357;52.188;7.838;2023-06-04T12:52:01;101443.22;;;25.62;23.10
29371;BME280;16357;52.188;7.838;2023-06-04T12:54:28;101442.72;;;25.65;23.44
29371;BME280;16357;52.188;7.838;2023-06-04T12:56:55;101443.56;;;25.66;23.25